Airfield :
LOGIN :

Register | Disclaimer

   EN    FR    IT 

 










Legend :    VFR   Marginal VFR   IFR   Intensive IFR   Very Intensive IFR
Visi :
Ceiling :
>= 8 km
>= 3000ft
5 to 8 km
1000 to 3000 ft
1500m to 5 km
500 to 1000 ft
800 to 1500m
200 to 500 ft
< 800m
< 200 ft
Symbols :   Thunderstorms  Fog  Heavy snow  Heavy precipitations  Wind > 20 kt
SIGMETs :     Misc.  Thunderstorms  Icing  Turbulence  Mountain Waves  Volcanic Ashes







- Airport Elevation : 326 ft
- IATA code : LCG
- Download approach charts


LECO - A Coruna

CURRENT METAR :
  • 171800Z 19011KT 140V220 9999 -RA FEW035 15/11 Q1013 TEMPO SHRA BKN025TCU

EXPIRED METARs :
  • 171730Z 20013KT 170V230 9999 -RA FEW035 15/11 Q1013 TEMPO SHRA BKN025TCU
  • 171700Z 22011KT 9999 FEW035 16/11 Q1013 TEMPO SHRA BKN025TCU
  • 171630Z 20007KT 160V230 9999 FEW035 18/10 Q1013 TEMPO SHRA BKN025TCU
  • 171600Z 19007KT 150V220 9999 FEW030 18/10 Q1013 TEMPO SHRA BKN025TCU
  • 171530Z 20006KT 170V230 9999 FEW030 18/10 Q1013 TEMPO SHRA BKN025TCU

TAF TAF LECO
Valid from the 17 at 15:00 until the 18 at 15:00 UTC


171400Z 1715/1815 23014KT 9999 SCT020 BKN035 TX20/1715Z TN11/1806Z
TEMPO 1715/1720 18016G28KT
TEMPO 1717/1804 SHRA SCT030TCU
PROB40
TEMPO 1718/1802 VRB06KT 3000 RA BKN014
PROB30
TEMPO 1720/1804 SHRA TS SCT030CB
BECMG 1800/1804 16007KT
PROB30
TEMPO 1804/1809 4500 -RA SHRA FEW030TCU
PROB30
TEMPO 1813/1815 28010KT SHRA FEW030TCU
No reported NOTAMs for that airfield.
4 SIGMETs reported for the Madrid FIR (LECM) :
 
Embedded thunderstorms
LECM SIGMET 9 VALID 171654/171830 LEVA
LECM MADRID FIR/UIR EMBD TS OBS AT 1654Z WI N3950 W00230 - N3920 W00240 - N3920 W00140 - N40 W00130 - N3950 W00230 TOP FL320 MOV NE NC=
Embedded thunderstorms
LECM SIGMET 12 VALID 171830/172030 LEVA
LECM MADRID FIR/UIR EMBD TS FCST E OF LINE N4020 W00210 - N3930 W002 TOP FL320 MOV ENE NC=
Embedded thunderstorms
LECM SIGMET 11 VALID 171730/172000 LEVA
LECM MADRID FIR/UIR EMBD TS OBS AT 1720Z WI N3720 W00720 - N3630 W006 - N3820 W00320 - N3840 W00630 - N3720 W00720 TOP FL340 MOV NE NC=
Embedded thunderstorms
LECM SIGMET 10 VALID 171719/171830 LEVA
LECM MADRID FIR/UIR EMBD TS OBS AT 1719Z WI N3820 W00250 - N3750 W00250 - N3750 W002 - N3830 W00150 - N3820 W00250 TOP FL320 MOV NE NC=



MET'MAP, your aeronautical weather chart ! - Copyright ORBIFLY December 2007 - Disclaimer

ORBIFLY MET'MAP TEAM :

Programming & Development : Alexandra Zaïnal
Concept & Development : Baudouin d'Aumeries
Co-Development & Prog : Marc-Olivier Méhu
Technical & hardware support : Manuel Goepfert

Contact : metmap@orbifly.com




SOURCES & CREDITS :

   NOAA